Time;durP1;ratioP1;P1;durP2;ratioP2;P2;SDS_P1;SDS_P2;PMS_P1;PMS_P2;Temp;Humidity;BMP_temperature;BMP_pressure;BME280_temperature;BME280_humidity;BME280_pressure;Samples;Min_cycle;Max_cycle;Signal;HPM_P1;HPM_P2
2023/03/10 00:00:48;;;;;;;37.00;24.43;;;5.40;99.90;;;;;;10423369;28;20213;-83
2023/03/10 00:05:51;;;;;;;25.03;16.07;;;5.70;99.90;;;;;;10422577;28;20188;-82
2023/03/10 00:10:53;;;;;;;23.30;15.17;;;6.30;99.90;;;;;;10422290;28;20195;-81
2023/03/10 00:15:56;;;;;;;23.77;13.70;;;6.40;99.90;;;;;;10421351;28;20263;-83
2023/03/10 00:20:59;;;;;;;36.67;23.57;;;6.70;99.90;;;;;;10421962;28;20217;-83
2023/03/10 00:26:01;;;;;;;34.27;23.20;;;6.50;99.90;;;;;;10421585;28;20282;-82
2023/03/10 00:31:07;;;;;;;26.23;15.43;;;5.80;99.90;;;;;;10402870;28;20969;-83
2023/03/10 00:36:17;;;;;;;31.13;21.93;;;6.10;99.90;;;;;;10403209;28;20220;-83
2023/03/10 00:41:25;;;;;;;38.73;24.77;;;5.50;99.90;;;;;;10365233;28;20193;-82
2023/03/10 00:46:28;;;;;;;35.97;22.73;;;5.30;99.90;;;;;;10380279;28;20209;-82
2023/03/10 00:51:31;;;;;;;31.37;20.30;;;4.50;99.90;;;;;;10381711;28;20241;-82
2023/03/10 00:56:34;;;;;;;44.37;24.97;;;5.30;99.90;;;;;;10420088;28;20251;-83
2023/03/10 01:01:39;;;;;;;38.70;23.93;;;5.50;99.90;;;;;;10403395;28;20268;-83
2023/03/10 01:06:43;;;;;;;31.33;18.00;;;5.80;99.90;;;;;;10401132;28;20249;-82
2023/03/10 01:11:46;;;;;;;37.40;18.87;;;6.10;99.90;;;;;;10357273;28;20267;-83
2023/03/10 01:16:48;;;;;;;32.73;20.57;;;6.80;99.90;;;;;;10356731;28;20643;-83
2023/03/10 01:21:51;;;;;;;37.93;22.27;;;6.90;99.90;;;;;;10356286;28;20260;-83
2023/03/10 01:26:54;;;;;;;32.97;20.73;;;6.80;99.90;;;;;;10373363;28;20255;-83
2023/03/10 01:31:56;;;;;;;30.03;18.40;;;5.70;99.90;;;;;;10372502;28;20579;-83
2023/03/10 01:36:59;;;;;;;34.77;20.17;;;5.90;99.90;;;;;;10330206;28;20638;-83
2023/03/10 01:42:02;;;;;;;25.33;14.97;;;5.20;99.90;;;;;;10314192;28;20264;-83
2023/03/10 01:47:05;;;;;;;30.00;18.77;;;5.70;99.90;;;;;;10314401;28;20555;-83
2023/03/10 01:52:15;;;;;;;44.43;28.20;;;5.50;99.90;;;;;;10352403;28;20217;-83
2023/03/10 01:57:22;;;;;;;49.57;30.30;;;4.80;99.90;;;;;;10356290;28;20235;-83
2023/03/10 02:02:26;;;;;;;34.00;21.60;;;4.10;99.90;;;;;;10343886;28;20210;-83
2023/03/10 02:07:29;;;;;;;35.87;21.83;;;4.20;99.90;;;;;;10377275;28;20255;-83
2023/03/10 02:12:32;;;;;;;27.93;17.77;;;5.20;99.90;;;;;;10358817;28;20271;-83
2023/03/10 02:17:35;;;;;;;28.77;18.47;;;5.00;99.90;;;;;;10359351;28;20640;-83
2023/03/10 02:22:38;;;;;;;37.90;23.90;;;5.10;99.90;;;;;;10357817;28;20256;-83
2023/03/10 02:27:43;;;;;;;35.97;22.47;;;5.20;99.90;;;;;;10357541;28;20237;-83
2023/03/10 02:32:52;;;;;;;29.03;18.50;;;5.60;99.90;;;;;;10375699;28;20211;-83
2023/03/10 02:37:57;;;;;;;40.67;25.30;;;5.50;99.90;;;;;;10358362;28;20288;-83
2023/03/10 02:43:06;;;;;;;33.67;21.53;;;5.70;99.90;;;;;;10357694;28;20225;-82
2023/03/10 02:48:18;;;;;;;43.67;25.67;;;6.00;99.90;;;;;;10332774;28;20635;-83
2023/03/10 02:53:24;;;;;;;40.93;25.00;;;6.30;99.90;;;;;;10357838;28;20263;-83
2023/03/10 02:58:29;;;;;;;36.20;21.37;;;5.80;99.90;;;;;;10357551;28;20228;-82
2023/03/10 03:03:32;;;;;;;24.10;15.90;;;5.70;99.90;;;;;;10355984;28;20257;-83
2023/03/10 03:08:35;;;;;;;38.03;24.80;;;5.90;99.90;;;;;;10373610;28;20209;-83
2023/03/10 03:13:41;;;;;;;27.63;17.80;;;5.80;99.90;;;;;;10356998;28;20270;-83
2023/03/10 03:18:44;;;;;;;24.07;15.60;;;5.60;99.90;;;;;;10356079;28;20264;-83
2023/03/10 03:23:49;;;;;;;26.90;16.37;;;6.00;99.90;;;;;;10356575;28;20269;-83
2023/03/10 03:28:55;;;;;;;25.57;16.77;;;6.70;99.90;;;;;;10356234;28;20243;-83
2023/03/10 03:34:01;;;;;;;25.70;15.60;;;6.70;99.90;;;;;;10357034;28;20215;-83
2023/03/10 03:39:07;;;;;;;21.17;13.80;;;6.50;99.90;;;;;;10373381;28;20228;-83
2023/03/10 03:44:11;;;;;;;18.10;12.23;;;6.80;99.90;;;;;;10356095;28;20263;-83
2023/03/10 03:49:16;;;;;;;17.90;11.93;;;7.60;99.90;;;;;;10356034;28;20206;-83
2023/03/10 03:54:20;;;;;;;28.53;18.70;;;7.40;99.90;;;;;;10355403;28;20213;-84
2023/03/10 03:59:22;;;;;;;31.90;21.47;;;7.00;99.90;;;;;;10355122;28;20301;-83
2023/03/10 04:04:26;;;;;;;37.67;22.33;;;6.80;99.90;;;;;;10355422;28;20200;-83
2023/03/10 04:09:30;;;;;;;32.87;21.07;;;6.20;99.90;;;;;;10354834;28;20297;-84
2023/03/10 04:14:34;;;;;;;28.70;17.10;;;5.40;99.90;;;;;;10354640;28;20208;-83
2023/03/10 04:19:37;;;;;;;25.90;16.60;;;5.10;99.90;;;;;;10338117;28;20296;-84
2023/03/10 04:24:44;;;;;;;33.50;19.13;;;6.00;99.90;;;;;;10355014;28;20280;-83
2023/03/10 04:29:47;;;;;;;39.37;22.30;;;6.20;99.90;;;;;;10353983;28;20231;-84
2023/03/10 04:34:50;;;;;;;33.47;19.73;;;5.90;99.90;;;;;;10371769;28;20243;-83
2023/03/10 04:39:53;;;;;;;27.53;17.20;;;6.30;99.90;;;;;;10353705;28;20233;-84
2023/03/10 04:44:56;;;;;;;29.73;18.80;;;6.00;99.90;;;;;;10353451;28;20211;-84
2023/03/10 04:49:59;;;;;;;38.17;22.13;;;6.20;99.90;;;;;;10354027;28;20214;-84
2023/03/10 04:55:03;;;;;;;39.07;24.37;;;5.90;99.90;;;;;;10329405;28;20218;-84
2023/03/10 05:00:08;;;;;;;44.17;26.73;;;6.00;99.90;;;;;;10346691;28;20301;-83
2023/03/10 05:05:11;;;;;;;27.30;16.70;;;6.00;99.90;;;;;;10353288;28;20214;-84
2023/03/10 05:10:18;;;;;;;27.33;16.70;;;6.20;99.90;;;;;;10352739;28;20240;-83
2023/03/10 05:15:21;;;;;;;46.93;28.07;;;6.50;99.90;;;;;;10369790;28;20267;-84
2023/03/10 05:20:24;;;;;;;45.43;25.97;;;6.40;99.90;;;;;;10370639;28;20207;-84
2023/03/10 05:25:27;;;;;;;44.67;26.30;;;6.70;99.90;;;;;;10353527;28;20200;-84
2023/03/10 05:30:30;;;;;;;54.90;30.83;;;6.40;99.90;;;;;;10370428;28;20289;-83
2023/03/10 05:35:33;;;;;;;51.97;29.87;;;5.70;99.90;;;;;;10360313;28;20214;-83
2023/03/10 05:40:36;;;;;;;41.50;24.37;;;5.80;99.90;;;;;;10360276;28;20758;-83
2023/03/10 05:45:39;;;;;;;49.70;28.73;;;5.80;99.90;;;;;;10360154;28;20205;-83
2023/03/10 05:50:41;;;;;;;38.20;22.50;;;5.40;99.90;;;;;;10378145;28;20204;-84
2023/03/10 05:55:44;;;;;;;19.87;11.40;;;5.20;99.90;;;;;;10359823;28;20296;-85
2023/03/10 06:00:47;;;;;;;56.53;30.03;;;5.20;99.90;;;;;;10381893;28;20201;-86
2023/03/10 06:05:50;;;;;;;55.43;31.83;;;6.00;99.90;;;;;;10375376;28;20212;-86
2023/03/10 06:10:53;;;;;;;55.93;31.03;;;5.50;99.90;;;;;;10377493;28;20231;-85
2023/03/10 06:15:59;;;;;;;57.03;30.87;;;4.60;99.90;;;;;;10358965;28;20252;-85
2023/03/10 06:21:11;;;;;;;68.80;38.90;;;4.40;99.90;;;;;;10358495;28;20208;-85
2023/03/10 06:26:15;;;;;;;61.67;34.73;;;3.90;99.90;;;;;;10375551;28;20220;-86
2023/03/10 06:31:21;;;;;;;66.23;36.40;;;4.60;99.90;;;;;;10376801;28;20287;-85
2023/03/10 06:36:26;;;;;;;60.00;34.77;;;4.20;99.90;;;;;;10374963;28;20280;-86
2023/03/10 06:41:28;;;;;;;56.57;32.87;;;4.30;99.90;;;;;;10375401;28;20211;-86
2023/03/10 06:46:31;;;;;;;56.83;32.80;;;4.40;99.90;;;;;;10356172;28;20210;-85
2023/03/10 06:51:34;;;;;;;52.77;30.70;;;4.40;99.90;;;;;;10334291;28;20220;-85
2023/03/10 06:56:36;;;;;;;53.50;29.60;;;4.60;99.90;;;;;;10316945;28;20272;-86
2023/03/10 07:01:39;;;;;;;44.77;27.37;;;5.10;99.90;;;;;;10337446;28;20236;-86
2023/03/10 07:06:42;;;;;;;40.27;21.73;;;4.80;99.90;;;;;;10370756;28;20251;-85
2023/03/10 07:11:44;;;;;;;50.80;30.10;;;5.10;99.90;;;;;;10370877;28;20232;-86
2023/03/10 07:16:47;;;;;;;48.73;29.87;;;5.10;99.90;;;;;;10351628;28;20312;-85
2023/03/10 07:21:50;;;;;;;55.10;32.40;;;5.40;99.90;;;;;;10352679;28;20313;-85
2023/03/10 07:26:52;;;;;;;51.27;31.63;;;5.10;99.90;;;;;;10369144;28;20237;-85
2023/03/10 07:37:40;;;;;;;46.90;26.73;;;5.10;99.90;;;;;;11399846;23;20342;-85
2023/03/10 07:42:43;;;;;;;49.60;30.43;;;5.10;99.90;;;;;;10136659;29;20330;-85
2023/03/10 07:47:45;;;;;;;50.93;28.40;;;6.50;99.90;;;;;;10127726;29;20238;-85
2023/03/10 07:52:48;;;;;;;50.87;28.13;;;6.10;99.90;;;;;;10128838;29;20313;-85
2023/03/10 07:57:51;;;;;;;48.83;27.17;;;5.60;99.90;;;;;;10129401;29;20264;-85
2023/03/10 08:02:53;;;;;;;49.33;28.07;;;5.40;99.90;;;;;;10127293;29;20256;-85
2023/03/10 08:07:56;;;;;;;49.50;29.93;;;5.40;99.90;;;;;;10130215;29;20256;-85
2023/03/10 08:12:59;;;;;;;45.83;25.83;;;5.40;99.90;;;;;;10129671;29;20249;-85
2023/03/10 08:18:04;;;;;;;50.10;30.90;;;5.40;99.90;;;;;;10129535;29;20676;-86
2023/03/10 08:23:06;;;;;;;41.97;25.63;;;5.40;99.90;;;;;;10131441;29;20248;-85
2023/03/10 08:28:09;;;;;;;46.47;25.40;;;5.40;99.90;;;;;;10167095;29;20384;-86
2023/03/10 08:33:12;;;;;;;39.80;22.63;;;5.60;99.90;;;;;;10168064;29;20702;-86
2023/03/10 08:38:14;;;;;;;35.63;22.97;;;5.80;99.90;;;;;;10166452;29;20292;-86
2023/03/10 08:43:17;;;;;;;39.60;25.40;;;5.90;99.90;;;;;;10167584;29;20330;-86
2023/03/10 08:48:19;;;;;;;42.80;22.97;;;6.40;99.90;;;;;;10166794;29;20275;-86
2023/03/10 08:53:22;;;;;;;32.90;19.20;;;6.70;99.90;;;;;;10167310;29;20340;-86
2023/03/10 08:58:25;;;;;;;31.63;19.00;;;6.80;99.90;;;;;;10165811;29;20655;-86
2023/03/10 09:03:28;;;;;;;23.60;14.30;;;7.20;99.90;;;;;;10166678;29;20243;-86
2023/03/10 09:08:33;;;;;;;21.43;12.07;;;7.90;99.90;;;;;;10171967;29;20243;-86
2023/03/10 09:13:37;;;;;;;17.10;11.30;;;8.40;99.90;;;;;;10174672;29;20314;-86
2023/03/10 09:18:40;;;;;;;22.10;12.03;;;8.90;99.90;;;;;;10175575;29;20718;-86
2023/03/10 09:23:45;;;;;;;15.87;10.57;;;9.30;99.90;;;;;;10172991;29;20299;-86
2023/03/10 09:28:49;;;;;;;19.97;8.87;;;9.80;99.90;;;;;;10150968;29;20248;-81
2023/03/10 09:33:52;;;;;;;10.53;7.37;;;10.00;99.90;;;;;;10133042;29;20239;-83
2023/03/10 09:38:56;;;;;;;13.87;8.47;;;10.50;99.90;;;;;;10138895;29;20267;-82
2023/03/10 09:44:27;;;;;;;13.50;9.30;;;11.40;99.90;;;;;;10132378;29;20339;-82
2023/03/10 09:49:32;;;;;;;15.10;6.93;;;11.30;99.90;;;;;;10121733;29;20706;-83
2023/03/10 09:55:05;;;;;;;16.80;9.73;;;11.80;99.90;;;;;;10133434;29;20268;-83
2023/03/10 10:00:20;;;;;;;11.77;7.47;;;12.00;99.90;;;;;;10133981;29;20361;-83
2023/03/10 10:05:26;;;;;;;13.47;7.63;;;12.70;99.90;;;;;;10134129;29;20704;-81
2023/03/10 10:10:34;;;;;;;12.80;8.00;;;12.90;99.90;;;;;;10132073;29;20258;-82
2023/03/10 10:15:40;;;;;;;17.67;9.10;;;12.90;99.90;;;;;;10131319;29;20256;-82
2023/03/10 10:20:46;;;;;;;7.90;5.43;;;12.70;99.90;;;;;;10130361;29;20269;-81
2023/03/10 10:25:48;;;;;;;14.40;8.13;;;13.10;99.90;;;;;;10131883;29;20252;-81
2023/03/10 10:31:07;;;;;;;10.80;7.10;;;13.50;99.90;;;;;;10116600;29;20249;-83
2023/03/10 10:36:17;;;;;;;11.10;6.97;;;13.80;99.90;;;;;;10132666;29;20254;-83
2023/03/10 10:41:30;;;;;;;10.17;6.57;;;14.00;99.90;;;;;;10128497;29;20269;-83
2023/03/10 10:46:33;;;;;;;8.43;5.77;;;14.00;99.90;;;;;;10130157;29;20871;-83
2023/03/10 10:51:37;;;;;;;11.23;7.20;;;14.50;99.90;;;;;;10126894;29;20997;-82
2023/03/10 10:56:54;;;;;;;10.73;6.13;;;15.00;99.90;;;;;;10130474;29;20251;-82
2023/03/10 11:01:58;;;;;;;9.07;6.33;;;15.00;99.90;;;;;;10131283;29;20295;-83
2023/03/10 11:07:22;;;;;;;5.97;5.10;;;15.20;99.90;;;;;;10137477;29;20244;-82
2023/03/10 11:12:34;;;;;;;6.27;4.77;;;15.00;99.90;;;;;;10130146;29;20780;-84
2023/03/10 11:17:47;;;;;;;4.90;2.93;;;15.10;99.90;;;;;;10130184;29;20260;-83
2023/03/10 11:23:23;;;;;;;5.33;4.77;;;15.20;99.90;;;;;;10129711;29;20232;-83
2023/03/10 11:28:38;;;;;;;4.63;4.00;;;15.50;99.90;;;;;;10130172;29;20252;-83
2023/03/10 11:34:06;;;;;;;5.07;4.30;;;15.40;99.90;;;;;;10130729;29;20244;-83
2023/03/10 11:39:42;;;;;;;5.50;4.20;;;15.40;99.90;;;;;;10112671;29;20324;-82
2023/03/10 11:44:53;;;;;;;7.87;5.07;;;15.40;99.90;;;;;;10117134;29;20243;-83
2023/03/10 11:50:25;;;;;;;7.00;4.87;;;15.60;99.90;;;;;;10128395;29;20255;-83
2023/03/10 11:55:30;;;;;;;6.87;4.87;;;15.60;99.90;;;;;;10125341;29;20303;-82
2023/03/10 12:00:39;;;;;;;3.10;1.80;;;15.50;99.90;;;;;;10128887;29;20267;-82
2023/03/10 12:05:54;;;;;;;6.13;3.80;;;15.70;99.90;;;;;;10127555;29;20676;-82
2023/03/10 12:11:00;;;;;;;7.13;4.90;;;15.60;99.90;;;;;;10118328;29;20313;-83
2023/03/10 12:16:05;;;;;;;7.03;4.47;;;15.40;99.90;;;;;;10104944;29;20331;-83
2023/03/10 12:21:19;;;;;;;6.20;4.37;;;15.30;99.90;;;;;;10117786;29;20259;-83
2023/03/10 12:26:37;;;;;;;5.80;3.97;;;15.40;99.90;;;;;;10122711;29;20236;-83
2023/03/10 12:31:39;;;;;;;7.27;4.17;;;15.30;99.90;;;;;;10127038;29;20251;-83
2023/03/10 12:36:45;;;;;;;5.30;4.00;;;14.90;99.90;;;;;;10124371;29;20852;-83
2023/03/10 12:41:50;;;;;;;5.30;4.07;;;15.00;99.90;;;;;;10126834;29;20264;-83
2023/03/10 12:47:12;;;;;;;5.53;3.73;;;14.80;99.90;;;;;;10128743;29;20783;-82
2023/03/10 12:52:25;;;;;;;7.27;4.73;;;14.70;99.90;;;;;;10126909;29;20251;-82
2023/03/10 12:57:49;;;;;;;5.67;4.07;;;14.80;99.90;;;;;;10142502;29;20263;-83
2023/03/10 13:03:00;;;;;;;6.23;5.10;;;14.50;99.90;;;;;;10123136;29;20287;-82
2023/03/10 13:08:28;;;;;;;6.00;4.23;;;14.20;99.90;;;;;;10123850;29;20272;-82
2023/03/10 13:13:34;;;;;;;6.00;4.10;;;14.20;99.90;;;;;;10124143;29;20244;-83
2023/03/10 13:18:36;;;;;;;6.10;4.00;;;14.50;99.90;;;;;;10116801;29;20685;-82
2023/03/10 13:23:42;;;;;;;7.83;5.03;;;14.30;99.90;;;;;;10089192;29;20692;-82
2023/03/10 13:28:57;;;;;;;9.37;6.03;;;14.20;99.90;;;;;;10088511;29;20240;-83
2023/03/10 13:34:17;;;;;;;11.73;6.37;;;14.00;99.90;;;;;;10122470;29;20265;-83
2023/03/10 13:39:22;;;;;;;5.87;3.80;;;13.90;99.90;;;;;;10119220;29;20343;-83
2023/03/10 13:44:39;;;;;;;7.87;4.70;;;14.10;99.90;;;;;;10127455;29;20232;-82
2023/03/10 13:49:48;;;;;;;7.97;5.10;;;14.20;99.90;;;;;;10124754;29;20609;-83
2023/03/10 13:54:51;;;;;;;4.63;4.20;;;13.80;99.90;;;;;;10109989;29;20841;-83
2023/03/10 13:59:55;;;;;;;6.73;4.70;;;13.60;99.90;;;;;;10102113;29;20680;-83
2023/03/10 14:04:59;;;;;;;10.00;6.40;;;13.70;99.90;;;;;;10131243;29;20247;-84
2023/03/10 14:10:06;;;;;;;9.83;5.80;;;13.40;99.90;;;;;;10129218;29;20670;-83
2023/03/10 14:15:18;;;;;;;13.53;6.17;;;13.10;99.90;;;;;;10131412;29;20296;-83
2023/03/10 14:20:35;;;;;;;17.67;9.30;;;12.80;99.90;;;;;;10122480;29;20332;-83
2023/03/10 14:25:40;;;;;;;18.57;10.90;;;12.50;99.90;;;;;;10131768;29;20711;-83
2023/03/10 14:30:43;;;;;;;24.53;13.50;;;12.30;99.90;;;;;;10133430;29;20250;-83
2023/03/10 14:35:46;;;;;;;20.80;9.60;;;12.30;99.90;;;;;;10133873;29;20732;-83
2023/03/10 14:40:50;;;;;;;13.10;8.63;;;12.20;99.90;;;;;;10099273;29;20661;-83
2023/03/10 14:45:56;;;;;;;12.13;6.07;;;12.10;99.90;;;;;;10128826;29;20662;-84
2023/03/10 14:50:59;;;;;;;8.93;6.30;;;12.20;99.90;;;;;;10131515;29;20232;-84
2023/03/10 14:56:02;;;;;;;13.03;6.20;;;12.00;99.90;;;;;;10131738;29;20303;-84
2023/03/10 15:01:05;;;;;;;7.03;4.23;;;11.70;99.90;;;;;;10130640;29;20292;-86
2023/03/10 15:06:13;;;;;;;3.80;2.40;;;11.60;99.90;;;;;;10131522;29;20277;-89
2023/03/10 15:11:16;;;;;;;8.53;4.70;;;10.70;99.90;;;;;;10131957;29;20270;-89
2023/03/10 15:16:37;;;;;;;4.73;1.60;;;11.30;99.90;;;;;;10094758;29;20610;-89
2023/03/10 15:21:39;;;;;;;4.63;3.13;;;11.50;99.90;;;;;;10100336;29;20673;-94
2023/03/10 15:26:43;;;;;;;7.07;4.00;;;11.00;99.90;;;;;;10119060;29;20291;-93
2023/03/10 15:31:46;;;;;;;5.73;4.00;;;10.50;99.90;;;;;;10132876;29;21020;-91
2023/03/10 15:36:49;;;;;;;13.20;9.43;;;10.20;99.90;;;;;;10134409;29;20249;-93
2023/03/10 15:41:52;;;;;;;29.43;18.97;;;10.00;99.90;;;;;;10131938;29;20308;-93
2023/03/10 15:46:55;;;;;;;27.73;17.03;;;9.70;99.90;;;;;;10134052;29;20217;-92
2023/03/10 15:51:58;;;;;;;31.67;20.77;;;9.50;99.90;;;;;;10131617;29;20276;-93
2023/03/10 15:57:00;;;;;;;34.47;20.07;;;9.30;99.90;;;;;;10130785;29;20248;-94
2023/03/10 16:02:03;;;;;;;35.40;19.03;;;9.20;99.90;;;;;;10133205;29;20280;-93
2023/03/10 16:07:06;;;;;;;27.50;19.07;;;9.00;99.90;;;;;;10130976;29;20231;-93
2023/03/10 16:12:09;;;;;;;27.30;18.37;;;8.90;99.90;;;;;;10129865;29;20239;-91
2023/03/10 16:17:11;;;;;;;23.48;18.30;;;8.70;99.90;;;;;;10129200;29;20993;-92
2023/03/10 16:22:14;;;;;;;21.63;17.00;;;8.60;99.90;;;;;;10129825;29;20748;-92
2023/03/10 16:27:17;;;;;;;24.13;17.80;;;8.60;99.90;;;;;;10129296;29;20260;-96
2023/03/10 16:32:34;;;;;;;25.90;18.10;;;8.50;99.90;;;;;;10134974;29;20585;-96
2023/03/10 16:37:42;;;;;;;47.50;29.03;;;8.40;99.90;;;;;;10131348;29;20312;-94
2023/03/10 16:42:45;;;;;;;40.60;22.93;;;8.40;99.90;;;;;;10131479;29;20582;-95
2023/03/10 16:47:48;;;;;;;54.77;32.97;;;8.50;99.90;;;;;;10135098;29;20754;-96
2023/03/10 16:52:55;;;;;;;47.57;29.37;;;8.80;99.90;;;;;;10139788;29;20220;-95
2023/03/10 16:57:58;;;;;;;46.87;29.37;;;8.60;99.90;;;;;;10133491;29;20219;-95
2023/03/10 17:03:00;;;;;;;54.00;32.70;;;8.60;99.90;;;;;;10135682;29;20606;-95
2023/03/10 17:08:17;;;;;;;73.73;39.97;;;8.40;99.90;;;;;;10173627;23;20266;-84
2023/03/10 17:13:20;;;;;;;54.77;30.87;;;8.40;99.90;;;;;;10135542;29;20919;-84
2023/03/10 17:18:22;;;;;;;49.20;28.73;;;8.30;99.90;;;;;;10132991;29;20243;-84
2023/03/10 17:23:25;;;;;;;47.73;29.80;;;8.10;99.90;;;;;;10144361;29;20251;-83
2023/03/10 17:28:28;;;;;;;48.07;32.00;;;7.90;99.90;;;;;;10133213;29;20702;-82
2023/03/10 17:33:30;;;;;;;38.10;24.23;;;7.80;99.90;;;;;;10137061;29;20243;-82
2023/03/10 17:38:34;;;;;;;43.30;25.63;;;7.50;99.90;;;;;;10158773;29;20250;-83
2023/03/10 17:43:37;;;;;;;65.93;36.20;;;7.20;99.90;;;;;;10173094;29;20607;-82
2023/03/10 17:48:40;;;;;;;90.80;42.13;;;7.20;99.90;;;;;;10151204;29;20247;-83
2023/03/10 17:53:43;;;;;;;30.20;19.87;;;7.00;99.90;;;;;;10149717;29;20252;-83
2023/03/10 17:58:46;;;;;;;44.80;28.90;;;7.00;99.90;;;;;;10155750;29;20311;-83
2023/03/10 18:03:49;;;;;;;49.73;28.43;;;7.00;99.90;;;;;;10157719;29;20271;-84
2023/03/10 18:08:52;;;;;;;63.43;35.73;;;6.90;99.90;;;;;;10153559;29;20716;-84
2023/03/10 18:13:58;;;;;;;75.97;44.93;;;6.90;99.90;;;;;;10145190;29;20677;-85
2023/03/10 18:19:05;;;;;;;42.00;25.20;;;6.70;99.90;;;;;;10152966;29;20267;-83
2023/03/10 18:24:11;;;;;;;44.57;27.90;;;6.70;99.90;;;;;;10153556;29;20247;-83
2023/03/10 18:29:14;;;;;;;64.43;38.33;;;6.60;99.90;;;;;;10163604;29;20299;-83
2023/03/10 18:34:18;;;;;;;59.90;36.30;;;6.40;99.90;;;;;;10172189;29;20243;-85
2023/03/10 18:39:20;;;;;;;53.73;31.93;;;6.40;99.90;;;;;;10172337;29;20263;-83
2023/03/10 18:44:23;;;;;;;64.23;33.07;;;6.40;99.90;;;;;;10170850;29;20243;-81
2023/03/10 18:49:25;;;;;;;53.80;30.27;;;6.40;99.90;;;;;;10170710;29;20321;-81
2023/03/10 18:54:29;;;;;;;68.77;35.30;;;6.40;99.90;;;;;;10153121;29;20252;-83
2023/03/10 18:59:31;;;;;;;48.40;33.03;;;6.30;99.90;;;;;;10142176;29;20748;-82
2023/03/10 19:04:36;;;;;;;74.40;48.10;;;6.00;99.90;;;;;;10145918;29;20550;-82
2023/03/10 19:09:38;;;;;;;72.00;42.13;;;6.00;99.90;;;;;;10150796;29;20240;-81
2023/03/10 19:14:41;;;;;;;63.77;34.77;;;6.00;99.90;;;;;;10160556;29;20232;-82
2023/03/10 19:19:44;;;;;;;58.67;32.43;;;6.00;99.90;;;;;;10163086;23;20323;-88
2023/03/10 19:24:47;;;;;;;51.30;32.60;;;6.00;99.90;;;;;;10111676;29;20253;-89
2023/03/10 19:29:51;;;;;;;58.67;33.03;;;6.00;99.90;;;;;;10169532;29;20327;-90
2023/03/10 19:34:54;;;;;;;64.60;40.00;;;6.00;99.90;;;;;;10175157;29;20248;-91
2023/03/10 19:39:57;;;;;;;82.67;39.93;;;6.00;99.90;;;;;;10150681;29;20662;-88
2023/03/10 19:44:59;;;;;;;69.10;38.60;;;6.10;99.90;;;;;;10137252;29;20297;-88
2023/03/10 19:50:03;;;;;;;54.70;33.30;;;6.20;99.90;;;;;;10134432;29;20216;-89
2023/03/10 19:55:09;;;;;;;60.33;36.80;;;6.40;99.90;;;;;;10132639;29;20252;-89
2023/03/10 20:00:15;;;;;;;67.27;40.33;;;6.30;99.90;;;;;;10131868;29;20339;-90
2023/03/10 20:05:17;;;;;;;78.90;45.47;;;6.20;99.90;;;;;;10130355;29;20244;-89
2023/03/10 20:10:20;;;;;;;105.13;57.33;;;6.30;99.90;;;;;;10135491;29;20224;-89
2023/03/10 20:15:23;;;;;;;89.37;52.43;;;6.20;99.90;;;;;;10139573;29;20216;-88
2023/03/10 20:20:27;;;;;;;73.40;44.20;;;6.20;99.90;;;;;;10123548;29;20232;-89
2023/03/10 20:25:29;;;;;;;70.37;41.93;;;6.20;99.90;;;;;;10098437;29;20232;-89
2023/03/10 20:30:32;;;;;;;50.23;31.93;;;6.10;99.90;;;;;;10096487;29;20213;-91
2023/03/10 20:35:37;;;;;;;29.33;19.53;;;6.20;99.90;;;;;;10103816;29;20244;-87
2023/03/10 20:40:39;;;;;;;66.47;40.37;;;6.40;99.90;;;;;;10109186;29;20255;-86
2023/03/10 20:45:42;;;;;;;54.20;33.67;;;6.20;99.90;;;;;;10111912;29;20242;-87
2023/03/10 20:50:45;;;;;;;106.00;53.93;;;6.20;99.90;;;;;;10116564;29;20216;-87
2023/03/10 20:56:08;;;;;;;84.27;39.63;;;6.40;99.90;;;;;;10115539;29;20532;-84
2023/03/10 21:01:19;;;;;;;52.23;31.57;;;6.40;99.90;;;;;;10113371;29;20259;-85
2023/03/10 21:06:26;;;;;;;45.50;27.93;;;6.60;99.90;;;;;;10098017;29;20252;-85
2023/03/10 21:11:29;;;;;;;50.77;30.07;;;6.60;99.90;;;;;;10102542;29;20252;-85
2023/03/10 21:16:36;;;;;;;49.73;29.50;;;6.50;99.90;;;;;;10098936;29;20235;-85
2023/03/10 21:21:39;;;;;;;44.20;27.67;;;6.40;99.90;;;;;;10115076;29;20325;-84
2023/03/10 21:26:44;;;;;;;49.43;28.80;;;6.50;99.90;;;;;;10104029;29;20236;-85
2023/03/10 21:31:46;;;;;;;51.50;32.53;;;6.60;99.90;;;;;;10100628;29;20694;-86
2023/03/10 21:36:49;;;;;;;51.63;31.97;;;6.70;99.90;;;;;;10106062;29;20240;-85
2023/03/10 21:41:51;;;;;;;38.00;23.43;;;6.70;99.90;;;;;;10111144;29;20255;-86
2023/03/10 21:46:54;;;;;;;54.60;33.40;;;6.70;99.90;;;;;;10106196;29;20317;-85
2023/03/10 21:51:57;;;;;;;53.43;35.07;;;8.40;99.90;;;;;;10091227;29;20257;-85
2023/03/10 21:56:59;;;;;;;49.30;32.40;;;7.50;99.90;;;;;;10099644;29;20245;-86
2023/03/10 22:02:02;;;;;;;49.87;31.90;;;7.50;99.90;;;;;;10109554;29;20258;-86
2023/03/10 22:07:05;;;;;;;60.23;38.27;;;7.40;99.90;;;;;;10094151;29;20236;-86
2023/03/10 22:12:09;;;;;;;90.07;49.30;;;7.50;99.90;;;;;;10097630;29;20306;-85
2023/03/10 22:17:11;;;;;;;91.93;48.77;;;7.60;99.90;;;;;;10111563;29;20667;-85
2023/03/10 22:22:14;;;;;;;85.33;47.77;;;7.30;99.90;;;;;;10109034;29;20647;-85
2023/03/10 22:27:17;;;;;;;65.13;39.13;;;7.30;99.90;;;;;;10114066;29;20238;-85
2023/03/10 22:32:19;;;;;;;56.93;36.00;;;7.60;99.90;;;;;;10106574;29;20250;-85
2023/03/10 22:37:22;;;;;;;48.33;30.33;;;7.60;99.90;;;;;;10121958;29;20708;-85
2023/03/10 22:42:25;;;;;;;37.90;25.70;;;7.50;99.90;;;;;;10101035;29;20275;-85
2023/03/10 22:47:29;;;;;;;37.93;24.53;;;7.60;99.90;;;;;;10118104;29;20303;-85
2023/03/10 22:52:31;;;;;;;32.37;20.53;;;7.60;99.90;;;;;;10107773;29;20270;-85
2023/03/10 22:57:34;;;;;;;30.83;21.47;;;7.70;99.90;;;;;;10105359;29;20253;-85
2023/03/10 23:02:37;;;;;;;28.27;17.53;;;7.70;99.90;;;;;;10096065;29;20713;-86
2023/03/10 23:07:40;;;;;;;28.00;15.80;;;7.80;99.90;;;;;;10105268;29;20637;-85
2023/03/10 23:12:43;;;;;;;23.80;15.50;;;7.80;99.90;;;;;;10116277;29;20307;-85
2023/03/10 23:17:45;;;;;;;24.10;14.80;;;7.90;99.90;;;;;;10118004;29;20682;-85
2023/03/10 23:22:48;;;;;;;19.30;15.27;;;8.30;99.90;;;;;;10127571;29;20341;-86
2023/03/10 23:27:51;;;;;;;18.50;13.97;;;8.50;99.90;;;;;;10102909;29;20294;-85
2023/03/10 23:32:54;;;;;;;19.57;14.07;;;9.00;99.90;;;;;;10113209;29;20946;-85
2023/03/10 23:38:00;;;;;;;21.83;14.30;;;9.30;99.90;;;;;;10098127;29;20251;-85
2023/03/10 23:43:06;;;;;;;19.63;12.93;;;9.80;99.90;;;;;;10100506;29;20264;-85
2023/03/10 23:48:14;;;;;;;14.73;11.07;;;9.50;99.90;;;;;;10100657;29;20246;-84
2023/03/10 23:53:19;;;;;;;17.67;11.30;;;8.50;99.90;;;;;;10118097;29;20339;-85
2023/03/10 23:58:22;;;;;;;19.50;12.67;;;7.90;99.90;;;;;;10114203;29;20248;-85
